sensor_id;sensor_type;location;lat;lon;timestamp;pressure;altitude;pressure_sealevel;temperature;humidity
16355;BME280;8287;51.644;8.494;2023-08-30T00:01:09;99670.63;;;16.05;84.01
16355;BME280;8287;51.644;8.494;2023-08-30T00:03:35;99676.44;;;16.11;84.92
16355;BME280;8287;51.644;8.494;2023-08-30T00:06:02;99684.06;;;16.12;84.53
16355;BME280;8287;51.644;8.494;2023-08-30T00:08:30;99678.38;;;16.14;84.41
16355;BME280;8287;51.644;8.494;2023-08-30T00:10:58;99681.06;;;16.14;84.02
16355;BME280;8287;51.644;8.494;2023-08-30T00:13:24;99681.25;;;16.24;82.37
16355;BME280;8287;51.644;8.494;2023-08-30T00:15:51;99679.50;;;16.13;83.24
16355;BME280;8287;51.644;8.494;2023-08-30T00:18:18;99679.56;;;16.16;82.91
16355;BME280;8287;51.644;8.494;2023-08-30T00:20:45;99680.00;;;16.18;82.69
16355;BME280;8287;51.644;8.494;2023-08-30T00:23:11;99679.63;;;16.20;82.40
16355;BME280;8287;51.644;8.494;2023-08-30T00:25:38;99674.63;;;16.18;82.61
16355;BME280;8287;51.644;8.494;2023-08-30T00:28:06;99675.03;;;16.20;82.50
16355;BME280;8287;51.644;8.494;2023-08-30T00:30:33;99676.31;;;16.26;82.40
16355;BME280;8287;51.644;8.494;2023-08-30T00:33:00;99670.06;;;16.19;82.77
16355;BME280;8287;51.644;8.494;2023-08-30T00:35:27;99675.28;;;16.12;84.88
16355;BME280;8287;51.644;8.494;2023-08-30T00:37:53;99672.16;;;15.87;85.30
16355;BME280;8287;51.644;8.494;2023-08-30T00:40:22;99669.41;;;15.80;86.33
16355;BME280;8287;51.644;8.494;2023-08-30T00:42:49;99661.63;;;15.94;86.37
16355;BME280;8287;51.644;8.494;2023-08-30T00:45:17;99656.00;;;15.99;86.26
16355;BME280;8287;51.644;8.494;2023-08-30T00:47:44;99660.56;;;15.99;86.94
16355;BME280;8287;51.644;8.494;2023-08-30T00:50:11;99663.41;;;16.09;87.49
16355;BME280;8287;51.644;8.494;2023-08-30T00:52:38;99656.13;;;16.06;87.51
16355;BME280;8287;51.644;8.494;2023-08-30T00:55:06;99660.03;;;16.12;88.26
16355;BME280;8287;51.644;8.494;2023-08-30T00:57:33;99651.66;;;16.14;87.28
16355;BME280;8287;51.644;8.494;2023-08-30T01:00:01;99649.09;;;16.21;88.07
16355;BME280;8287;51.644;8.494;2023-08-30T01:02:30;99652.53;;;16.21;87.73
16355;BME280;8287;51.644;8.494;2023-08-30T01:04:57;99644.22;;;16.26;87.84
16355;BME280;8287;51.644;8.494;2023-08-30T01:07:24;99647.22;;;16.44;85.61
16355;BME280;8287;51.644;8.494;2023-08-30T01:09:52;99645.34;;;16.48;85.37
16355;BME280;8287;51.644;8.494;2023-08-30T01:12:23;99640.34;;;16.46;86.95
16355;BME280;8287;51.644;8.494;2023-08-30T01:14:55;99636.53;;;16.44;87.75
16355;BME280;8287;51.644;8.494;2023-08-30T01:17:23;99635.06;;;16.50;88.76
16355;BME280;8287;51.644;8.494;2023-08-30T01:19:56;99635.84;;;16.50;89.22
16355;BME280;8287;51.644;8.494;2023-08-30T01:22:36;99637.44;;;16.55;89.73
16355;BME280;8287;51.644;8.494;2023-08-30T01:25:15;99629.78;;;16.53;89.92
16355;BME280;8287;51.644;8.494;2023-08-30T01:27:47;99637.50;;;16.58;90.09
16355;BME280;8287;51.644;8.494;2023-08-30T01:30:15;99633.41;;;16.67;89.54
16355;BME280;8287;51.644;8.494;2023-08-30T01:32:43;99632.03;;;16.77;88.99
16355;BME280;8287;51.644;8.494;2023-08-30T01:35:09;99625.56;;;16.78;89.23
16355;BME280;8287;51.644;8.494;2023-08-30T01:37:37;99628.31;;;16.85;88.86
16355;BME280;8287;51.644;8.494;2023-08-30T01:40:06;99628.72;;;16.87;88.82
16355;BME280;8287;51.644;8.494;2023-08-30T01:42:34;99631.78;;;16.85;88.87
16355;BME280;8287;51.644;8.494;2023-08-30T01:45:05;99633.00;;;16.91;88.89
16355;BME280;8287;51.644;8.494;2023-08-30T01:47:35;99633.88;;;16.99;88.02
16355;BME280;8287;51.644;8.494;2023-08-30T01:50:02;99634.28;;;17.01;88.56
16355;BME280;8287;51.644;8.494;2023-08-30T01:52:30;99638.41;;;16.95;88.81
16355;BME280;8287;51.644;8.494;2023-08-30T01:54:58;99627.75;;;16.98;88.78
16355;BME280;8287;51.644;8.494;2023-08-30T01:57:26;99636.66;;;17.09;87.90
16355;BME280;8287;51.644;8.494;2023-08-30T01:59:52;99634.47;;;17.15;87.08
16355;BME280;8287;51.644;8.494;2023-08-30T02:02:21;99628.38;;;17.18;87.18
16355;BME280;8287;51.644;8.494;2023-08-30T02:04:47;99634.53;;;17.22;87.30
16355;BME280;8287;51.644;8.494;2023-08-30T02:07:17;99632.28;;;17.24;87.69
16355;BME280;8287;51.644;8.494;2023-08-30T02:09:49;99628.81;;;17.23;87.75
16355;BME280;8287;51.644;8.494;2023-08-30T02:12:18;99633.81;;;17.25;87.71
16355;BME280;8287;51.644;8.494;2023-08-30T02:14:48;99635.75;;;17.28;87.30
16355;BME280;8287;51.644;8.494;2023-08-30T02:17:15;99628.09;;;17.26;87.66
16355;BME280;8287;51.644;8.494;2023-08-30T02:19:45;99625.41;;;17.26;87.66
16355;BME280;8287;51.644;8.494;2023-08-30T02:22:12;99623.19;;;17.32;87.40
16355;BME280;8287;51.644;8.494;2023-08-30T02:24:39;99630.00;;;17.26;88.00
16355;BME280;8287;51.644;8.494;2023-08-30T02:27:05;99625.06;;;17.28;87.75
16355;BME280;8287;51.644;8.494;2023-08-30T02:29:32;99625.09;;;17.31;88.29
16355;BME280;8287;51.644;8.494;2023-08-30T02:31:58;99618.19;;;17.30;88.17
16355;BME280;8287;51.644;8.494;2023-08-30T02:34:25;99612.72;;;17.20;89.46
16355;BME280;8287;51.644;8.494;2023-08-30T02:36:54;99615.78;;;17.22;89.49
16355;BME280;8287;51.644;8.494;2023-08-30T02:39:21;99617.34;;;17.23;90.47
16355;BME280;8287;51.644;8.494;2023-08-30T02:41:47;99622.31;;;17.24;90.97
16355;BME280;8287;51.644;8.494;2023-08-30T02:44:14;99618.81;;;17.17;90.47
16355;BME280;8287;51.644;8.494;2023-08-30T02:46:40;99617.25;;;17.16;91.34
16355;BME280;8287;51.644;8.494;2023-08-30T02:49:07;99619.25;;;17.22;91.67
16355;BME280;8287;51.644;8.494;2023-08-30T02:51:34;99613.13;;;17.22;91.29
16355;BME280;8287;51.644;8.494;2023-08-30T02:54:02;99613.53;;;17.24;90.51
16355;BME280;8287;51.644;8.494;2023-08-30T02:56:31;99613.19;;;17.29;88.94
16355;BME280;8287;51.644;8.494;2023-08-30T02:58:58;99617.41;;;17.30;89.04
16355;BME280;8287;51.644;8.494;2023-08-30T03:01:24;99612.75;;;17.23;89.27
16355;BME280;8287;51.644;8.494;2023-08-30T03:03:51;99608.19;;;17.24;89.53
16355;BME280;8287;51.644;8.494;2023-08-30T03:06:18;99613.91;;;17.22;89.55
16355;BME280;8287;51.644;8.494;2023-08-30T03:08:44;99608.09;;;17.17;89.65
16355;BME280;8287;51.644;8.494;2023-08-30T03:11:13;99609.94;;;17.13;89.60
16355;BME280;8287;51.644;8.494;2023-08-30T03:13:39;99607.91;;;17.03;90.74
16355;BME280;8287;51.644;8.494;2023-08-30T03:16:10;99614.00;;;17.00;91.59
16355;BME280;8287;51.644;8.494;2023-08-30T03:18:37;99606.38;;;17.02;91.82
16355;BME280;8287;51.644;8.494;2023-08-30T03:21:04;99606.31;;;16.98;92.20
16355;BME280;8287;51.644;8.494;2023-08-30T03:23:31;99607.75;;;16.89;91.85
16355;BME280;8287;51.644;8.494;2023-08-30T03:25:57;99612.38;;;16.92;91.79
16355;BME280;8287;51.644;8.494;2023-08-30T03:28:25;99610.03;;;16.90;91.41
16355;BME280;8287;51.644;8.494;2023-08-30T03:30:53;99610.00;;;16.87;90.72
16355;BME280;8287;51.644;8.494;2023-08-30T03:33:19;99611.53;;;16.88;91.31
16355;BME280;8287;51.644;8.494;2023-08-30T03:35:46;99601.56;;;16.85;90.86
16355;BME280;8287;51.644;8.494;2023-08-30T03:38:12;99597.72;;;16.82;89.64
16355;BME280;8287;51.644;8.494;2023-08-30T03:40:39;99605.34;;;16.80;89.89
16355;BME280;8287;51.644;8.494;2023-08-30T03:43:06;99600.34;;;16.79;90.26
16355;BME280;8287;51.644;8.494;2023-08-30T03:45:35;99600.66;;;16.74;89.37
16355;BME280;8287;51.644;8.494;2023-08-30T03:48:03;99600.25;;;16.72;89.66
16355;BME280;8287;51.644;8.494;2023-08-30T03:50:29;99603.63;;;16.69;90.07
16355;BME280;8287;51.644;8.494;2023-08-30T03:52:56;99599.28;;;16.58;89.83
16355;BME280;8287;51.644;8.494;2023-08-30T03:55:23;99601.81;;;16.47;89.83
16355;BME280;8287;51.644;8.494;2023-08-30T03:57:49;99597.19;;;16.22;91.09
16355;BME280;8287;51.644;8.494;2023-08-30T04:00:16;99589.09;;;16.18;92.32
16355;BME280;8287;51.644;8.494;2023-08-30T04:02:44;99593.84;;;16.28;92.35
16355;BME280;8287;51.644;8.494;2023-08-30T04:05:11;99595.56;;;16.40;91.21
16355;BME280;8287;51.644;8.494;2023-08-30T04:07:38;99596.09;;;16.49;90.48
16355;BME280;8287;51.644;8.494;2023-08-30T04:10:05;99591.94;;;16.51;90.30
16355;BME280;8287;51.644;8.494;2023-08-30T04:12:32;99595.47;;;16.59;89.54
16355;BME280;8287;51.644;8.494;2023-08-30T04:14:59;99587.50;;;16.62;89.52
16355;BME280;8287;51.644;8.494;2023-08-30T04:17:26;99590.38;;;16.50;90.14
16355;BME280;8287;51.644;8.494;2023-08-30T04:19:54;99581.28;;;16.55;91.03
16355;BME280;8287;51.644;8.494;2023-08-30T04:22:21;99586.22;;;16.53;90.82
16355;BME280;8287;51.644;8.494;2023-08-30T04:24:48;99585.94;;;16.61;90.81
16355;BME280;8287;51.644;8.494;2023-08-30T04:27:15;99578.31;;;16.63;90.17
16355;BME280;8287;51.644;8.494;2023-08-30T04:29:41;99580.19;;;16.59;90.80
16355;BME280;8287;51.644;8.494;2023-08-30T04:32:10;99581.44;;;16.65;90.41
16355;BME280;8287;51.644;8.494;2023-08-30T04:34:36;99569.59;;;16.66;90.23
16355;BME280;8287;51.644;8.494;2023-08-30T04:37:05;99575.41;;;16.72;89.42
16355;BME280;8287;51.644;8.494;2023-08-30T04:39:31;99577.78;;;16.77;89.56
16355;BME280;8287;51.644;8.494;2023-08-30T04:41:58;99582.34;;;16.76;89.57
16355;BME280;8287;51.644;8.494;2023-08-30T04:44:24;99582.38;;;16.79;89.75
16355;BME280;8287;51.644;8.494;2023-08-30T04:46:53;99579.66;;;16.76;89.77
16355;BME280;8287;51.644;8.494;2023-08-30T04:49:20;99574.50;;;16.90;88.36
16355;BME280;8287;51.644;8.494;2023-08-30T04:51:47;99587.94;;;16.93;88.08
16355;BME280;8287;51.644;8.494;2023-08-30T04:54:14;99578.38;;;16.96;87.94
16355;BME280;8287;51.644;8.494;2023-08-30T04:56:42;99570.34;;;16.96;88.10
16355;BME280;8287;51.644;8.494;2023-08-30T04:59:08;99584.16;;;16.98;87.90
16355;BME280;8287;51.644;8.494;2023-08-30T05:01:35;99587.53;;;16.95;88.94
16355;BME280;8287;51.644;8.494;2023-08-30T05:04:03;99585.69;;;16.99;88.21
16355;BME280;8287;51.644;8.494;2023-08-30T05:06:30;99578.34;;;16.92;88.54
16355;BME280;8287;51.644;8.494;2023-08-30T05:08:57;99584.13;;;16.94;89.27
16355;BME280;8287;51.644;8.494;2023-08-30T05:11:25;99577.94;;;16.90;89.60
16355;BME280;8287;51.644;8.494;2023-08-30T05:13:52;99577.94;;;16.90;89.21
16355;BME280;8287;51.644;8.494;2023-08-30T05:16:25;99579.47;;;16.91;89.14
16355;BME280;8287;51.644;8.494;2023-08-30T05:18:51;99578.03;;;16.97;89.07
16355;BME280;8287;51.644;8.494;2023-08-30T05:21:18;99581.53;;;17.05;88.41
16355;BME280;8287;51.644;8.494;2023-08-30T05:23:45;99578.84;;;17.01;88.86
16355;BME280;8287;51.644;8.494;2023-08-30T05:26:12;99570.34;;;16.96;89.92
16355;BME280;8287;51.644;8.494;2023-08-30T05:28:40;99574.59;;;17.00;89.41
16355;BME280;8287;51.644;8.494;2023-08-30T05:31:06;99568.22;;;17.08;88.18
16355;BME280;8287;51.644;8.494;2023-08-30T05:33:33;99567.91;;;17.13;87.49
16355;BME280;8287;51.644;8.494;2023-08-30T05:36:00;99564.38;;;17.06;88.79
16355;BME280;8287;51.644;8.494;2023-08-30T05:38:27;99564.03;;;17.11;88.63
16355;BME280;8287;51.644;8.494;2023-08-30T05:40:54;99557.63;;;17.19;88.35
16355;BME280;8287;51.644;8.494;2023-08-30T05:43:20;99550.72;;;17.18;88.92
16355;BME280;8287;51.644;8.494;2023-08-30T05:45:47;99550.72;;;17.18;88.99
16355;BME280;8287;51.644;8.494;2023-08-30T05:48:14;99547.31;;;17.21;88.21
16355;BME280;8287;51.644;8.494;2023-08-30T05:50:41;99547.28;;;17.17;89.23
16355;BME280;8287;51.644;8.494;2023-08-30T05:53:07;99545.81;;;17.23;88.47
16355;BME280;8287;51.644;8.494;2023-08-30T05:55:34;99542.81;;;17.28;88.46
16355;BME280;8287;51.644;8.494;2023-08-30T05:58:01;99540.16;;;17.28;88.68
16355;BME280;8287;51.644;8.494;2023-08-30T06:00:27;99545.22;;;17.37;88.43
16355;BME280;8287;51.644;8.494;2023-08-30T06:02:55;99540.25;;;17.39;88.12
16355;BME280;8287;51.644;8.494;2023-08-30T06:05:22;99532.66;;;17.41;87.89
16355;BME280;8287;51.644;8.494;2023-08-30T06:07:50;99538.31;;;17.36;89.24
16355;BME280;8287;51.644;8.494;2023-08-30T06:10:16;99540.22;;;17.35;89.78
16355;BME280;8287;51.644;8.494;2023-08-30T06:12:43;99540.25;;;17.39;89.56
16355;BME280;8287;51.644;8.494;2023-08-30T06:15:10;99541.13;;;17.46;88.94
16355;BME280;8287;51.644;8.494;2023-08-30T06:17:36;99530.47;;;17.53;88.03
16355;BME280;8287;51.644;8.494;2023-08-30T06:20:05;99534.69;;;17.54;88.40
16355;BME280;8287;51.644;8.494;2023-08-30T06:22:32;99540.81;;;17.55;89.35
16355;BME280;8287;51.644;8.494;2023-08-30T06:24:59;99539.69;;;17.56;89.93
16355;BME280;8287;51.644;8.494;2023-08-30T06:27:25;99540.47;;;17.60;89.92
16355;BME280;8287;51.644;8.494;2023-08-30T06:29:52;99538.16;;;17.58;89.46
16355;BME280;8287;51.644;8.494;2023-08-30T06:32:18;99528.59;;;17.57;90.81
16355;BME280;8287;51.644;8.494;2023-08-30T06:34:46;99539.81;;;17.70;90.12
16355;BME280;8287;51.644;8.494;2023-08-30T06:37:14;99538.38;;;17.79;89.07
16355;BME280;8287;51.644;8.494;2023-08-30T06:39:40;99529.19;;;17.80;89.62
16355;BME280;8287;51.644;8.494;2023-08-30T06:42:07;99525.06;;;17.90;88.97
16355;BME280;8287;51.644;8.494;2023-08-30T06:44:33;99521.28;;;18.01;87.87
16355;BME280;8287;51.644;8.494;2023-08-30T06:47:00;99529.34;;;18.05;87.74
16355;BME280;8287;51.644;8.494;2023-08-30T06:49:27;99534.69;;;18.01;88.00
16355;BME280;8287;51.644;8.494;2023-08-30T06:51:53;99534.78;;;18.12;87.40
16355;BME280;8287;51.644;8.494;2023-08-30T06:54:21;99524.06;;;18.15;87.45
16355;BME280;8287;51.644;8.494;2023-08-30T06:56:57;99525.66;;;18.23;87.66
16355;BME280;8287;51.644;8.494;2023-08-30T06:59:24;99518.78;;;18.26;87.30
16355;BME280;8287;51.644;8.494;2023-08-30T07:01:50;99517.28;;;18.28;87.61
16355;BME280;8287;51.644;8.494;2023-08-30T07:04:17;99518.03;;;18.29;87.58
16355;BME280;8287;51.644;8.494;2023-08-30T07:06:44;99511.59;;;18.37;87.63
16355;BME280;8287;51.644;8.494;2023-08-30T07:09:10;99508.16;;;18.36;86.46
16355;BME280;8287;51.644;8.494;2023-08-30T07:11:38;99506.47;;;18.18;87.74
16355;BME280;8287;51.644;8.494;2023-08-30T07:14:05;99505.03;;;18.31;87.29
16355;BME280;8287;51.644;8.494;2023-08-30T07:16:31;99498.97;;;18.41;86.75
16355;BME280;8287;51.644;8.494;2023-08-30T07:18:58;99498.22;;;18.44;86.25
16355;BME280;8287;51.644;8.494;2023-08-30T07:21:26;99488.25;;;18.48;86.08
16355;BME280;8287;51.644;8.494;2023-08-30T07:23:53;99501.78;;;18.69;85.08
16355;BME280;8287;51.644;8.494;2023-08-30T07:26:19;99498.72;;;18.67;84.83
16355;BME280;8287;51.644;8.494;2023-08-30T07:28:47;99494.53;;;18.80;84.13
16355;BME280;8287;51.644;8.494;2023-08-30T07:31:14;99503.00;;;18.89;82.50
16355;BME280;8287;51.644;8.494;2023-08-30T07:33:43;99493.84;;;18.97;82.75
16355;BME280;8287;51.644;8.494;2023-08-30T07:36:10;99491.19;;;19.07;82.44
16355;BME280;8287;51.644;8.494;2023-08-30T07:38:37;99484.97;;;18.82;81.76
16355;BME280;8287;51.644;8.494;2023-08-30T07:41:03;99486.13;;;18.85;82.09
16355;BME280;8287;51.644;8.494;2023-08-30T07:43:30;99473.44;;;18.75;81.93
16355;BME280;8287;51.644;8.494;2023-08-30T07:45:58;99477.31;;;18.84;82.04
16355;BME280;8287;51.644;8.494;2023-08-30T07:48:25;99470.47;;;19.08;81.08
16355;BME280;8287;51.644;8.494;2023-08-30T07:50:51;99473.91;;;19.01;80.95
16355;BME280;8287;51.644;8.494;2023-08-30T07:53:18;99472.84;;;19.34;80.25
16355;BME280;8287;51.644;8.494;2023-08-30T07:55:48;99468.63;;;19.47;79.36
16355;BME280;8287;51.644;8.494;2023-08-30T07:58:14;99459.00;;;19.35;78.68
16355;BME280;8287;51.644;8.494;2023-08-30T08:00:41;99464.78;;;19.37;78.36
16355;BME280;8287;51.644;8.494;2023-08-30T08:03:09;99464.78;;;19.58;77.17
16355;BME280;8287;51.644;8.494;2023-08-30T08:05:36;99469.78;;;19.74;76.94
16355;BME280;8287;51.644;8.494;2023-08-30T08:08:03;99465.91;;;19.89;75.34
16355;BME280;8287;51.644;8.494;2023-08-30T08:10:31;99460.91;;;19.94;74.63
16355;BME280;8287;51.644;8.494;2023-08-30T08:12:58;99465.53;;;19.94;76.20
16355;BME280;8287;51.644;8.494;2023-08-30T08:15:24;99466.28;;;20.19;74.48
16355;BME280;8287;51.644;8.494;2023-08-30T08:17:51;99462.78;;;20.32;73.12
16355;BME280;8287;51.644;8.494;2023-08-30T08:20:19;99463.16;;;20.41;72.47
16355;BME280;8287;51.644;8.494;2023-08-30T08:22:46;99465.47;;;20.36;72.95
16355;BME280;8287;51.644;8.494;2023-08-30T08:25:13;99466.19;;;20.53;72.35
16355;BME280;8287;51.644;8.494;2023-08-30T08:27:39;99466.16;;;20.57;73.40
16355;BME280;8287;51.644;8.494;2023-08-30T08:30:07;99466.88;;;20.71;70.93
16355;BME280;8287;51.644;8.494;2023-08-30T08:32:34;99459.50;;;20.82;69.85
16355;BME280;8287;51.644;8.494;2023-08-30T08:35:01;99454.09;;;20.82;70.38
16355;BME280;8287;51.644;8.494;2023-08-30T08:37:29;99451.75;;;20.98;70.58
16355;BME280;8287;51.644;8.494;2023-08-30T08:39:56;99449.78;;;21.09;68.63
16355;BME280;8287;51.644;8.494;2023-08-30T08:42:23;99456.28;;;21.12;68.75
16355;BME280;8287;51.644;8.494;2023-08-30T08:44:51;99451.66;;;21.16;66.58
16355;BME280;8287;51.644;8.494;2023-08-30T08:47:19;99445.81;;;21.24;66.04
16355;BME280;8287;51.644;8.494;2023-08-30T08:49:47;99442.41;;;21.17;66.64
16355;BME280;8287;51.644;8.494;2023-08-30T08:52:14;99444.22;;;21.30;66.35
16355;BME280;8287;51.644;8.494;2023-08-30T08:54:42;99449.06;;;21.49;64.81
16355;BME280;8287;51.644;8.494;2023-08-30T08:57:09;99447.13;;;21.53;65.47
16355;BME280;8287;51.644;8.494;2023-08-30T08:59:36;99450.13;;;21.62;63.70
16355;BME280;8287;51.644;8.494;2023-08-30T09:02:03;99440.50;;;21.68;62.85
16355;BME280;8287;51.644;8.494;2023-08-30T09:04:30;99446.31;;;21.56;63.39
16355;BME280;8287;51.644;8.494;2023-08-30T09:06:58;99445.41;;;21.77;62.25
16355;BME280;8287;51.644;8.494;2023-08-30T09:09:24;99442.69;;;21.80;62.57
16355;BME280;8287;51.644;8.494;2023-08-30T09:11:52;99445.25;;;21.94;60.31
16355;BME280;8287;51.644;8.494;2023-08-30T09:14:19;99432.13;;;21.96;62.33
16355;BME280;8287;51.644;8.494;2023-08-30T09:16:54;99437.44;;;22.03;60.32
16355;BME280;8287;51.644;8.494;2023-08-30T09:19:21;99445.09;;;22.08;61.10
16355;BME280;8287;51.644;8.494;2023-08-30T09:21:51;99446.91;;;22.22;59.48
16355;BME280;8287;51.644;8.494;2023-08-30T09:24:18;99432.59;;;22.25;56.31
16355;BME280;8287;51.644;8.494;2023-08-30T09:26:48;99435.22;;;22.32;55.61
16355;BME280;8287;51.644;8.494;2023-08-30T09:29:17;99439.03;;;22.34;54.74
16355;BME280;8287;51.644;8.494;2023-08-30T09:31:44;99446.66;;;22.43;56.80
16355;BME280;8287;51.644;8.494;2023-08-30T09:34:10;99437.41;;;22.44;53.10
16355;BME280;8287;51.644;8.494;2023-08-30T09:36:38;99442.72;;;22.51;53.56
16355;BME280;8287;51.644;8.494;2023-08-30T09:39:05;99444.19;;;22.55;54.96
16355;BME280;8287;51.644;8.494;2023-08-30T09:41:33;99433.66;;;22.64;51.92
16355;BME280;8287;51.644;8.494;2023-08-30T09:44:00;99435.19;;;22.65;50.79
16355;BME280;8287;51.644;8.494;2023-08-30T09:46:28;99429.78;;;22.65;50.99
16355;BME280;8287;51.644;8.494;2023-08-30T09:48:55;99428.50;;;22.77;51.85
16355;BME280;8287;51.644;8.494;2023-08-30T09:51:23;99419.94;;;22.82;50.80
16355;BME280;8287;51.644;8.494;2023-08-30T09:53:53;99415.72;;;22.81;48.78
16355;BME280;8287;51.644;8.494;2023-08-30T09:56:25;99409.44;;;22.87;47.71
16355;BME280;8287;51.644;8.494;2023-08-30T09:58:53;99418.66;;;22.90;47.28
16355;BME280;8287;51.644;8.494;2023-08-30T10:01:20;99418.38;;;22.84;49.36
16355;BME280;8287;51.644;8.494;2023-08-30T10:03:48;99413.91;;;22.71;50.81
16355;BME280;8287;51.644;8.494;2023-08-30T10:06:15;99419.94;;;22.82;50.57
16355;BME280;8287;51.644;8.494;2023-08-30T10:08:42;99424.25;;;22.76;49.09
16355;BME280;8287;51.644;8.494;2023-08-30T10:11:11;99426.56;;;22.77;49.79
16355;BME280;8287;51.644;8.494;2023-08-30T10:13:42;99413.63;;;22.92;46.29
16355;BME280;8287;51.644;8.494;2023-08-30T10:16:12;99408.81;;;23.03;45.85
16355;BME280;8287;51.644;8.494;2023-08-30T10:18:41;99402.38;;;22.97;44.27
16355;BME280;8287;51.644;8.494;2023-08-30T10:21:12;99397.72;;;22.97;45.90
16355;BME280;8287;51.644;8.494;2023-08-30T10:23:39;99403.34;;;23.06;46.83
16355;BME280;8287;51.644;8.494;2023-08-30T10:26:07;99406.47;;;23.05;45.85
16355;BME280;8287;51.644;8.494;2023-08-30T10:28:35;99398.06;;;22.99;46.90
16355;BME280;8287;51.644;8.494;2023-08-30T10:31:02;99396.88;;;23.00;46.19
16355;BME280;8287;51.644;8.494;2023-08-30T10:33:30;99399.59;;;23.00;46.78
16355;BME280;8287;51.644;8.494;2023-08-30T10:36:04;99405.75;;;23.01;47.33
16355;BME280;8287;51.644;8.494;2023-08-30T10:38:32;99392.00;;;22.92;47.25
16355;BME280;8287;51.644;8.494;2023-08-30T10:41:07;99389.31;;;22.92;47.38
16355;BME280;8287;51.644;8.494;2023-08-30T10:43:35;99394.69;;;22.92;47.94
16355;BME280;8287;51.644;8.494;2023-08-30T10:46:03;99386.66;;;22.88;47.97
16355;BME280;8287;51.644;8.494;2023-08-30T10:48:36;99383.94;;;22.88;48.95
16355;BME280;8287;51.644;8.494;2023-08-30T10:51:05;99384.13;;;22.74;48.50
16355;BME280;8287;51.644;8.494;2023-08-30T10:53:33;99386.34;;;22.83;49.36
16355;BME280;8287;51.644;8.494;2023-08-30T10:56:07;99385.22;;;22.80;49.12
16355;BME280;8287;51.644;8.494;2023-08-30T10:58:43;99380.94;;;22.83;49.08
16355;BME280;8287;51.644;8.494;2023-08-30T11:01:21;99381.47;;;22.71;49.84
16355;BME280;8287;51.644;8.494;2023-08-30T11:04:04;99378.84;;;22.67;50.38
16355;BME280;8287;51.644;8.494;2023-08-30T11:06:58;99385.06;;;22.64;49.28
16355;BME280;8287;51.644;8.494;2023-08-30T11:10:21;99373.84;;;22.66;51.08
16355;BME280;8287;51.644;8.494;2023-08-30T11:13:26;99374.81;;;22.79;51.18
16355;BME280;8287;51.644;8.494;2023-08-30T11:16:23;99368.41;;;22.69;50.72
16355;BME280;8287;51.644;8.494;2023-08-30T11:19:22;99351.69;;;22.78;52.54
16355;BME280;8287;51.644;8.494;2023-08-30T11:22:14;99358.19;;;23.07;51.28
16355;BME280;8287;51.644;8.494;2023-08-30T11:29:05;99351.91;;;23.13;50.92
16355;BME280;8287;51.644;8.494;2023-08-30T11:32:17;99353.94;;;23.32;50.22
16355;BME280;8287;51.644;8.494;2023-08-30T11:37:53;99355.28;;;23.44;49.58
16355;BME280;8287;51.644;8.494;2023-08-30T11:40:29;99339.78;;;23.67;49.20
16355;BME280;8287;51.644;8.494;2023-08-30T11:43:11;99329.56;;;23.55;49.91
16355;BME280;8287;51.644;8.494;2023-08-30T11:46:03;99336.13;;;23.77;49.20
16355;BME280;8287;51.644;8.494;2023-08-30T11:49:23;99326.56;;;23.92;49.22
16355;BME280;8287;51.644;8.494;2023-08-30T11:52:11;99322.69;;;23.93;48.22
16355;BME280;8287;51.644;8.494;2023-08-30T11:54:39;99324.47;;;23.80;48.20
16355;BME280;8287;51.644;8.494;2023-08-30T11:57:07;99327.84;;;23.84;47.84
16355;BME280;8287;51.644;8.494;2023-08-30T11:59:42;99322.50;;;23.61;47.91
16355;BME280;8287;51.644;8.494;2023-08-30T12:02:32;99312.78;;;23.44;49.38
16355;BME280;8287;51.644;8.494;2023-08-30T12:05:17;99317.44;;;23.63;50.00
16355;BME280;8287;51.644;8.494;2023-08-30T12:07:49;99311.34;;;23.79;48.92
16355;BME280;8287;51.644;8.494;2023-08-30T12:10:18;99303.28;;;23.75;48.46
16355;BME280;8287;51.644;8.494;2023-08-30T12:12:51;99305.53;;;23.80;47.14
16355;BME280;8287;51.644;8.494;2023-08-30T12:15:18;99313.91;;;23.66;48.18
16355;BME280;8287;51.644;8.494;2023-08-30T12:18:16;99303.38;;;23.52;49.60
16355;BME280;8287;51.644;8.494;2023-08-30T12:21:04;99314.75;;;23.63;49.56
16355;BME280;8287;51.644;8.494;2023-08-30T12:24:07;99308.97;;;23.42;48.59
16355;BME280;8287;51.644;8.494;2023-08-30T12:27:00;99306.09;;;23.29;49.24
16355;BME280;8287;51.644;8.494;2023-08-30T12:29:51;99306.31;;;23.15;48.66
16355;BME280;8287;51.644;8.494;2023-08-30T12:32:22;99308.19;;;22.95;50.32
16355;BME280;8287;51.644;8.494;2023-08-30T12:34:50;99320.81;;;23.02;49.80
16355;BME280;8287;51.644;8.494;2023-08-30T12:37:16;99303.13;;;22.97;50.50
16355;BME280;8287;51.644;8.494;2023-08-30T12:39:43;99298.84;;;23.00;50.66
16355;BME280;8287;51.644;8.494;2023-08-30T12:42:10;99303.25;;;22.90;51.38
16355;BME280;8287;51.644;8.494;2023-08-30T12:44:36;99308.75;;;22.83;52.04
16355;BME280;8287;51.644;8.494;2023-08-30T12:47:03;99303.59;;;22.69;52.16
16355;BME280;8287;51.644;8.494;2023-08-30T12:49:30;99308.88;;;22.76;51.87
16355;BME280;8287;51.644;8.494;2023-08-30T12:51:58;99306.22;;;22.73;52.19
16355;BME280;8287;51.644;8.494;2023-08-30T12:54:25;99327.06;;;22.72;51.07
16355;BME280;8287;51.644;8.494;2023-08-30T12:56:51;99336.94;;;22.26;57.46
16355;BME280;8287;51.644;8.494;2023-08-30T12:59:18;99338.13;;;21.91;61.57
16355;BME280;8287;51.644;8.494;2023-08-30T13:01:44;99345.72;;;21.66;63.76
16355;BME280;8287;51.644;8.494;2023-08-30T13:04:11;99354.50;;;21.33;65.84
16355;BME280;8287;51.644;8.494;2023-08-30T13:06:38;99353.94;;;21.08;67.27
16355;BME280;8287;51.644;8.494;2023-08-30T13:09:05;99347.44;;;21.06;68.47
16355;BME280;8287;51.644;8.494;2023-08-30T13:11:32;99354.41;;;20.96;69.44
16355;BME280;8287;51.644;8.494;2023-08-30T13:13:58;99353.00;;;20.74;70.07
16355;BME280;8287;51.644;8.494;2023-08-30T13:16:25;99350.72;;;20.69;71.25
16355;BME280;8287;51.644;8.494;2023-08-30T13:18:52;99346.53;;;20.61;71.78
16355;BME280;8287;51.644;8.494;2023-08-30T13:21:18;99340.44;;;20.54;71.48
16355;BME280;8287;51.644;8.494;2023-08-30T13:23:45;99343.56;;;20.45;71.99
16355;BME280;8287;51.644;8.494;2023-08-30T13:26:13;99345.84;;;20.50;72.32
16355;BME280;8287;51.644;8.494;2023-08-30T13:28:39;99342.38;;;20.53;72.86